Time;durP1;ratioP1;P1;durP2;ratioP2;P2;SDS_P1;SDS_P2;PMS_P1;PMS_P2;Temp;Humidity;BMP_temperature;BMP_pressure;BME280_temperature;BME280_humidity;BME280_pressure;Samples;Min_cycle;Max_cycle;Signal;HPM_P1;HPM_P2
2023/06/06 00:00:30;;;;;;;6.45;4.03;;;16.80;85.10;;;;;;6219958;28;20069;-82
2023/06/06 00:03:32;;;;;;;3.90;3.60;;;16.80;85.30;;;;;;6222182;28;20048;-83
2023/06/06 00:06:35;;;;;;;5.45;4.30;;;16.80;85.40;;;;;;6220432;28;20056;-82
2023/06/06 00:09:37;;;;;;;4.03;3.58;;;16.80;85.70;;;;;;6219235;28;20365;-82
2023/06/06 00:12:41;;;;;;;3.80;3.38;;;16.80;85.90;;;;;;6221269;28;20053;-82
2023/06/06 00:15:44;;;;;;;4.72;4.05;;;16.80;86.20;;;;;;6221650;28;20088;-83
2023/06/06 00:18:46;;;;;;;3.78;3.10;;;16.80;86.30;;;;;;6220694;28;20564;-83
2023/06/06 00:21:49;;;;;;;6.68;3.33;;;16.70;86.40;;;;;;6220857;28;20171;-83
2023/06/06 00:24:54;;;;;;;4.25;3.20;;;16.70;86.60;;;;;;6222066;28;20045;-83
2023/06/06 00:27:55;;;;;;;4.15;3.63;;;16.80;86.80;;;;;;6221368;28;20575;-81
2023/06/06 00:30:57;;;;;;;3.38;3.10;;;16.80;86.60;;;;;;6222689;28;20046;-82
2023/06/06 00:33:59;;;;;;;4.93;2.97;;;16.80;86.70;;;;;;6216871;28;20050;-81
2023/06/06 00:37:02;;;;;;;5.90;2.85;;;16.80;86.90;;;;;;6222101;28;20848;-82
2023/06/06 00:40:04;;;;;;;6.55;3.08;;;16.80;87.00;;;;;;6223402;28;20134;-82
2023/06/06 00:43:06;;;;;;;3.95;2.92;;;16.80;87.70;;;;;;6222858;28;20365;-84
2023/06/06 00:46:08;;;;;;;6.40;3.20;;;16.90;87.20;;;;;;6223128;28;20053;-84
2023/06/06 00:49:13;;;;;;;3.40;3.10;;;16.80;87.40;;;;;;6222629;28;20499;-81
2023/06/06 00:52:17;;;;;;;3.60;3.00;;;16.80;87.60;;;;;;6221656;28;20053;-81
2023/06/06 00:55:20;;;;;;;4.00;3.70;;;16.90;87.90;;;;;;6220486;28;20053;-83
2023/06/06 00:58:22;;;;;;;4.57;2.40;;;16.80;87.80;;;;;;6222340;28;20129;-84
2023/06/06 01:01:25;;;;;;;5.38;3.08;;;16.80;88.10;;;;;;6220543;28;20823;-82
2023/06/06 01:04:27;;;;;;;3.05;2.70;;;16.70;88.30;;;;;;6220503;28;20046;-83
2023/06/06 01:07:32;;;;;;;6.47;3.00;;;16.70;88.40;;;;;;6221868;28;20389;-81
2023/06/06 01:10:35;;;;;;;8.90;3.45;;;16.70;88.80;;;;;;6221793;28;20049;-82
2023/06/06 01:13:45;;;;;;;3.15;2.75;;;16.60;89.10;;;;;;6222988;28;20145;-82
2023/06/06 01:16:52;;;;;;;3.30;2.75;;;16.60;89.40;;;;;;6221458;28;20045;-83
2023/06/06 01:19:56;;;;;;;4.05;3.08;;;16.60;89.60;;;;;;6221657;28;20085;-81
2023/06/06 01:23:00;;;;;;;3.58;3.28;;;16.50;90.00;;;;;;6219415;28;20539;-82
2023/06/06 01:26:04;;;;;;;3.92;2.70;;;16.50;90.10;;;;;;6221169;28;20137;-83
2023/06/06 01:29:06;;;;;;;5.90;2.85;;;16.60;90.20;;;;;;6219825;28;20180;-83
2023/06/06 01:32:14;;;;;;;5.25;3.17;;;16.60;90.20;;;;;;6220425;28;20402;-82
2023/06/06 01:35:24;;;;;;;3.10;2.80;;;16.60;90.30;;;;;;6216398;28;20046;-82
2023/06/06 01:38:31;;;;;;;3.88;3.15;;;16.50;90.40;;;;;;6215008;28;20064;-82
2023/06/06 01:41:37;;;;;;;5.88;3.38;;;16.50;90.50;;;;;;6217696;28;20049;-81
2023/06/06 01:44:40;;;;;;;4.47;4.13;;;16.50;90.60;;;;;;6217780;28;20038;-82
2023/06/06 01:47:42;;;;;;;5.57;2.95;;;16.40;90.80;;;;;;6217619;28;20048;-81
2023/06/06 01:50:45;;;;;;;6.32;3.17;;;16.40;90.90;;;;;;6222882;28;20045;-83
2023/06/06 01:53:48;;;;;;;4.82;3.42;;;16.40;91.10;;;;;;6222785;28;20060;-82
2023/06/06 01:56:50;;;;;;;3.60;3.30;;;16.40;91.20;;;;;;6222627;28;20428;-82
2023/06/06 01:59:52;;;;;;;3.63;3.25;;;16.40;91.30;;;;;;6221479;28;20038;-80
2023/06/06 02:02:53;;;;;;;4.80;3.30;;;16.40;91.50;;;;;;6222258;28;20046;-80
2023/06/06 02:05:55;;;;;;;3.00;2.80;;;16.30;91.60;;;;;;6222274;28;20449;-82
2023/06/06 02:08:58;;;;;;;4.05;3.38;;;16.30;91.70;;;;;;6223983;28;20524;-82
2023/06/06 02:12:00;;;;;;;5.13;3.30;;;16.30;91.80;;;;;;6224981;28;20410;-82
2023/06/06 02:15:02;;;;;;;4.70;4.25;;;16.20;91.80;;;;;;6224610;28;20404;-81
2023/06/06 02:18:05;;;;;;;19.92;4.30;;;16.20;92.00;;;;;;6225273;28;20056;-82
2023/06/06 02:21:06;;;;;;;6.32;4.20;;;16.10;92.20;;;;;;6224476;28;20453;-83
2023/06/06 02:24:09;;;;;;;6.93;3.42;;;16.10;92.40;;;;;;6224938;28;20049;-83
2023/06/06 02:27:14;;;;;;;4.22;3.78;;;16.10;92.50;;;;;;6224293;28;20046;-83
2023/06/06 02:30:16;;;;;;;3.42;3.13;;;16.00;92.60;;;;;;6224129;28;20042;-81
2023/06/06 02:33:19;;;;;;;5.32;3.28;;;16.00;92.70;;;;;;6225712;28;20053;-81
2023/06/06 02:36:21;;;;;;;5.35;3.80;;;15.90;92.90;;;;;;6223666;28;20479;-82
2023/06/06 02:39:24;;;;;;;6.50;4.00;;;15.80;93.10;;;;;;6224849;28;20508;-81
2023/06/06 02:42:26;;;;;;;4.22;3.83;;;15.80;93.30;;;;;;6224592;28;20076;-82
2023/06/06 02:45:28;;;;;;;3.72;3.08;;;15.70;93.50;;;;;;6226202;28;20054;-82
2023/06/06 02:48:30;;;;;;;3.22;2.95;;;15.70;93.80;;;;;;6226402;28;20046;-81
2023/06/06 02:51:31;;;;;;;4.38;3.90;;;15.60;94.10;;;;;;6227389;28;20136;-82
2023/06/06 02:54:34;;;;;;;5.28;3.22;;;15.60;94.30;;;;;;6225489;28;20057;-82
2023/06/06 02:57:36;;;;;;;5.07;4.35;;;15.60;94.50;;;;;;6225090;28;20060;-82
2023/06/06 03:00:38;;;;;;;6.55;4.43;;;15.50;94.60;;;;;;6223528;28;20045;-82
2023/06/06 03:03:40;;;;;;;4.47;2.92;;;15.50;94.90;;;;;;6223534;28;20127;-82
2023/06/06 03:06:42;;;;;;;6.70;3.95;;;15.40;95.00;;;;;;6207835;28;20043;-83
2023/06/06 03:09:45;;;;;;;7.43;4.55;;;15.40;95.20;;;;;;6198821;28;20073;-83
2023/06/06 03:12:47;;;;;;;5.10;4.60;;;15.30;95.30;;;;;;6198438;28;20046;-82
2023/06/06 03:15:49;;;;;;;9.02;3.92;;;15.20;95.50;;;;;;6200681;28;20088;-83
2023/06/06 03:18:51;;;;;;;5.45;4.03;;;15.20;95.80;;;;;;6203313;28;20046;-83
2023/06/06 03:21:53;;;;;;;9.32;6.07;;;15.10;96.00;;;;;;6203850;28;20047;-82
2023/06/06 03:24:56;;;;;;;5.85;4.70;;;15.10;96.20;;;;;;6203139;28;20043;-82
2023/06/06 03:27:57;;;;;;;6.75;4.15;;;15.00;96.40;;;;;;6203678;28;20042;-81
2023/06/06 03:30:59;;;;;;;7.25;4.30;;;15.10;96.60;;;;;;6203934;28;20057;-84
2023/06/06 03:34:01;;;;;;;7.13;4.40;;;15.10;96.60;;;;;;6208238;28;20394;-82
2023/06/06 03:37:03;;;;;;;5.55;4.25;;;15.10;96.80;;;;;;6207097;28;20046;-82
2023/06/06 03:40:08;;;;;;;5.95;5.35;;;15.10;97.00;;;;;;6206927;28;20390;-82
2023/06/06 03:43:10;;;;;;;6.55;5.45;;;15.20;97.20;;;;;;6202810;28;20053;-85
2023/06/06 03:46:11;;;;;;;7.25;4.88;;;15.20;97.30;;;;;;6202983;28;20065;-82
2023/06/06 03:49:13;;;;;;;7.03;5.47;;;15.20;97.60;;;;;;6204342;28;20046;-82
2023/06/06 03:52:15;;;;;;;4.88;4.40;;;15.20;97.70;;;;;;6204644;28;20054;-83
2023/06/06 03:55:18;;;;;;;8.60;5.05;;;15.20;97.90;;;;;;6206834;28;20113;-84
2023/06/06 03:58:20;;;;;;;5.78;4.88;;;15.30;98.00;;;;;;6206342;28;20046;-83
2023/06/06 04:01:23;;;;;;;7.72;4.95;;;15.30;98.10;;;;;;6206849;28;20101;-81
2023/06/06 04:04:26;;;;;;;5.28;4.78;;;15.30;98.20;;;;;;6205309;28;20042;-84
2023/06/06 04:07:29;;;;;;;5.10;4.60;;;15.40;98.40;;;;;;6205571;28;20499;-83
2023/06/06 04:10:32;;;;;;;5.95;4.95;;;15.40;98.60;;;;;;6206472;28;20918;-84
2023/06/06 04:13:33;;;;;;;6.70;5.80;;;15.50;98.80;;;;;;6208866;28;20507;-83
2023/06/06 04:16:35;;;;;;;7.03;5.43;;;15.60;99.10;;;;;;6207933;28;20089;-86
2023/06/06 04:19:37;;;;;;;5.22;4.70;;;15.80;99.50;;;;;;6207290;28;20058;-83
2023/06/06 04:22:41;;;;;;;5.05;4.30;;;16.20;99.60;;;;;;6207680;28;20065;-85
2023/06/06 04:25:44;;;;;;;6.30;5.10;;;16.70;99.20;;;;;;6207215;28;20056;-85
2023/06/06 04:28:48;;;;;;;5.55;5.05;;;17.10;98.40;;;;;;6206241;28;20054;-85
2023/06/06 04:31:52;;;;;;;8.75;5.13;;;17.40;97.70;;;;;;6211392;28;20050;-83
2023/06/06 04:34:57;;;;;;;6.70;4.50;;;17.40;97.40;;;;;;6214322;28;20038;-83
2023/06/06 04:37:59;;;;;;;6.70;4.55;;;17.50;97.20;;;;;;6214114;28;20058;-83
2023/06/06 04:41:02;;;;;;;4.75;4.35;;;17.70;97.30;;;;;;6216514;28;20421;-83
2023/06/06 04:44:03;;;;;;;5.75;4.75;;;18.10;97.00;;;;;;6214341;28;20051;-83
2023/06/06 04:47:08;;;;;;;4.43;3.75;;;18.60;96.30;;;;;;6213685;28;20137;-83
2023/06/06 04:50:10;;;;;;;5.55;4.10;;;19.00;95.30;;;;;;6210578;28;20050;-83
2023/06/06 04:53:12;;;;;;;5.43;4.85;;;19.20;94.50;;;;;;6206515;28;20046;-83
2023/06/06 04:56:15;;;;;;;4.25;3.85;;;19.30;93.80;;;;;;6200814;28;20046;-84
2023/06/06 04:59:17;;;;;;;6.63;3.90;;;19.50;93.50;;;;;;6200090;28;20158;-83
2023/06/06 05:02:21;;;;;;;5.75;5.20;;;20.10;93.00;;;;;;6200689;28;20129;-83
2023/06/06 05:05:23;;;;;;;4.72;4.32;;;20.70;91.90;;;;;;6201438;28;20057;-83
2023/06/06 05:08:25;;;;;;;9.10;4.00;;;21.30;90.80;;;;;;6201025;28;20469;-83
2023/06/06 05:11:28;;;;;;;7.78;4.53;;;21.80;89.40;;;;;;6201150;28;20056;-82
2023/06/06 05:14:30;;;;;;;4.68;4.13;;;22.20;85.40;;;;;;6200785;28;20049;-84
2023/06/06 05:17:31;;;;;;;5.10;4.13;;;22.30;84.60;;;;;;6222301;28;20100;-83
2023/06/06 05:20:33;;;;;;;5.63;4.85;;;22.40;82.20;;;;;;6226326;28;20046;-83
2023/06/06 05:23:36;;;;;;;6.25;3.83;;;22.30;81.70;;;;;;6224305;28;20052;-82
2023/06/06 05:26:39;;;;;;;6.03;3.90;;;22.60;80.80;;;;;;6225136;28;20120;-83
2023/06/06 05:29:42;;;;;;;4.40;4.00;;;23.00;79.90;;;;;;6224977;28;20060;-83
2023/06/06 05:32:44;;;;;;;6.68;5.53;;;23.60;77.60;;;;;;6225089;28;20049;-83
2023/06/06 05:35:46;;;;;;;5.68;4.20;;;23.90;75.10;;;;;;6224972;28;20057;-82
2023/06/06 05:38:48;;;;;;;4.78;4.10;;;24.00;73.30;;;;;;6225077;28;20042;-82
2023/06/06 05:41:54;;;;;;;5.63;4.43;;;24.10;72.10;;;;;;6225906;28;20152;-83
2023/06/06 05:44:56;;;;;;;5.05;4.47;;;24.10;71.30;;;;;;6226939;28;20045;-83
2023/06/06 05:47:57;;;;;;;4.53;3.55;;;24.50;70.80;;;;;;6226150;28;20065;-83
2023/06/06 05:50:59;;;;;;;4.78;4.28;;;24.90;69.00;;;;;;6225746;28;20058;-85
2023/06/06 05:57:59;;;;;;;4.10;3.70;;;25.50;65.80;;;;;;6195761;28;20057;-83
2023/06/06 06:01:01;;;;;;;4.05;3.60;;;25.50;65.80;;;;;;6231172;28;20049;-83
2023/06/06 06:04:03;;;;;;;4.15;3.35;;;25.60;65.50;;;;;;6237913;28;20100;-85
2023/06/06 06:07:05;;;;;;;3.47;3.17;;;25.90;64.50;;;;;;6224853;28;20085;-85
2023/06/06 06:10:07;;;;;;;4.35;3.92;;;26.30;63.70;;;;;;6227031;28;20049;-85
2023/06/06 06:13:10;;;;;;;3.83;3.45;;;26.50;61.80;;;;;;6225335;28;20049;-84
2023/06/06 06:16:12;;;;;;;3.30;2.80;;;26.50;61.90;;;;;;6223210;28;20050;-86
2023/06/06 06:19:14;;;;;;;10.20;4.47;;;26.50;61.50;;;;;;6228276;28;20069;-85
2023/06/06 06:22:15;;;;;;;6.60;3.38;;;26.70;60.90;;;;;;6232410;28;20046;-83
2023/06/06 06:25:17;;;;;;;4.05;3.60;;;26.80;60.50;;;;;;6225668;28;20050;-87
2023/06/06 06:28:21;;;;;;;3.95;3.55;;;26.50;59.90;;;;;;6223428;28;20405;-84
2023/06/06 06:31:23;;;;;;;4.47;4.07;;;26.30;59.90;;;;;;6226604;28;20050;-85
2023/06/06 06:34:25;;;;;;;8.15;3.17;;;26.00;60.30;;;;;;6225063;28;20464;-85
2023/06/06 06:37:29;;;;;;;3.92;3.50;;;26.10;60.50;;;;;;6224128;28;20423;-85
2023/06/06 06:40:31;;;;;;;4.18;3.13;;;26.30;60.00;;;;;;6201423;28;20100;-86
2023/06/06 06:43:34;;;;;;;3.65;3.35;;;26.50;59.80;;;;;;6201707;28;20042;-84
2023/06/06 06:46:36;;;;;;;4.57;3.25;;;26.80;58.90;;;;;;6202686;28;20046;-86
2023/06/06 06:49:40;;;;;;;3.03;2.75;;;26.90;58.70;;;;;;6205541;28;20053;-84
2023/06/06 06:52:41;;;;;;;8.27;3.50;;;27.00;58.30;;;;;;6211766;28;20096;-84
2023/06/06 06:55:45;;;;;;;4.00;3.38;;;27.40;57.80;;;;;;6212522;28;20046;-84
2023/06/06 06:58:48;;;;;;;3.13;2.83;;;27.90;57.30;;;;;;6211660;28;20543;-84
2023/06/06 07:01:50;;;;;;;4.72;3.40;;;28.20;55.90;;;;;;6213701;28;20049;-84
2023/06/06 07:37:01;;;;;;;3.17;2.80;;;28.60;50.50;;;;;;6229554;28;20541;-84
2023/06/06 07:40:05;;;;;;;4.10;3.55;;;29.20;50.10;;;;;;6213523;28;20128;-79
2023/06/06 07:43:07;;;;;;;6.40;3.25;;;28.70;49.00;;;;;;6199219;28;20069;-80
2023/06/06 07:46:09;;;;;;;5.03;3.50;;;27.60;49.50;;;;;;6246598;28;20057;-78
2023/06/06 07:49:10;;;;;;;6.30;3.28;;;26.40;51.10;;;;;;6254286;28;20052;-80
2023/06/06 07:52:13;;;;;;;8.93;3.33;;;25.70;52.30;;;;;;6248506;28;20060;-79
2023/06/06 07:55:20;;;;;;;3.88;3.15;;;25.10;53.60;;;;;;6252184;28;20045;-79
2023/06/06 07:58:26;;;;;;;3.42;3.03;;;25.10;54.30;;;;;;6253094;28;20559;-81
2023/06/06 08:01:27;;;;;;;5.10;3.08;;;24.90;54.30;;;;;;6250548;28;20495;-81
2023/06/06 08:04:29;;;;;;;4.78;2.75;;;24.70;54.50;;;;;;6250376;28;20507;-78
2023/06/06 08:07:35;;;;;;;6.05;2.90;;;24.60;54.70;;;;;;6252252;28;20140;-79
2023/06/06 08:10:37;;;;;;;4.00;2.80;;;24.50;55.10;;;;;;6248385;28;20041;-79
2023/06/06 08:13:39;;;;;;;3.50;2.80;;;24.50;55.30;;;;;;6252236;28;20049;-78
2023/06/06 08:16:41;;;;;;;5.55;2.92;;;24.60;55.10;;;;;;6250135;28;20041;-82
2023/06/06 08:19:42;;;;;;;3.75;3.30;;;24.80;54.90;;;;;;6227421;28;20071;-79
2023/06/06 08:22:52;;;;;;;3.47;2.75;;;24.90;54.50;;;;;;6218204;28;20045;-79
2023/06/06 08:25:55;;;;;;;3.63;3.25;;;24.90;54.60;;;;;;6229188;28;20398;-81
2023/06/06 08:28:57;;;;;;;6.45;3.60;;;25.00;54.40;;;;;;6226309;28;20053;-78
2023/06/06 08:32:00;;;;;;;4.82;3.15;;;25.10;54.40;;;;;;6221132;28;20053;-80
2023/06/06 08:35:03;;;;;;;6.43;3.50;;;25.10;54.30;;;;;;6211041;28;20053;-78
2023/06/06 08:38:06;;;;;;;3.80;3.47;;;25.20;54.30;;;;;;6215358;28;20050;-79
2023/06/06 08:41:09;;;;;;;3.85;3.42;;;25.20;54.20;;;;;;6218184;28;20042;-77
2023/06/06 08:44:12;;;;;;;5.85;3.42;;;25.30;54.30;;;;;;6230143;28;20060;-79
2023/06/06 08:47:14;;;;;;;3.55;3.25;;;25.40;53.90;;;;;;6226548;28;20046;-78
2023/06/06 08:50:16;;;;;;;7.85;2.85;;;25.30;53.50;;;;;;6224353;28;20066;-81
2023/06/06 08:53:20;;;;;;;3.78;2.92;;;25.40;53.90;;;;;;6228948;28;20060;-80
2023/06/06 08:56:22;;;;;;;4.18;3.17;;;25.40;53.40;;;;;;6228080;28;20071;-80
2023/06/06 08:59:24;;;;;;;6.30;4.57;;;25.60;53.30;;;;;;6227110;28;20531;-78
2023/06/06 09:02:28;;;;;;;6.35;3.25;;;25.70;52.90;;;;;;6219165;28;20069;-80
2023/06/06 09:05:30;;;;;;;4.47;2.88;;;25.50;52.60;;;;;;6222181;28;20085;-78
2023/06/06 09:08:33;;;;;;;4.03;3.20;;;25.50;52.30;;;;;;6228229;28;20054;-79
2023/06/06 09:11:35;;;;;;;3.80;2.63;;;25.60;52.30;;;;;;6218608;28;20042;-79
2023/06/06 09:14:37;;;;;;;3.78;2.58;;;25.60;52.20;;;;;;6214633;28;20045;-77
2023/06/06 09:17:39;;;;;;;2.90;2.60;;;25.60;52.10;;;;;;6221373;28;20542;-78
2023/06/06 09:20:41;;;;;;;3.60;3.20;;;25.70;51.70;;;;;;6231438;28;20398;-80
2023/06/06 09:23:46;;;;;;;3.45;2.50;;;25.80;51.20;;;;;;6228540;28;20046;-79
2023/06/06 09:26:47;;;;;;;4.07;3.05;;;25.70;50.40;;;;;;6222898;28;20049;-77
2023/06/06 09:29:49;;;;;;;4.47;3.03;;;25.60;49.80;;;;;;6227528;28;20061;-81
2023/06/06 09:32:56;;;;;;;2.85;2.60;;;25.70;49.70;;;;;;6212643;28;20042;-79
2023/06/06 09:36:05;;;;;;;5.63;2.95;;;25.80;50.20;;;;;;6223313;28;20056;-81
2023/06/06 09:39:11;;;;;;;5.53;3.50;;;26.10;49.90;;;;;;6226685;28;20046;-79
2023/06/06 09:42:15;;;;;;;3.13;2.83;;;26.10;50.10;;;;;;6224945;28;20489;-77
2023/06/06 09:45:18;;;;;;;7.35;3.25;;;26.30;50.20;;;;;;6223371;28;20057;-77
2023/06/06 09:48:21;;;;;;;4.95;3.05;;;26.50;49.90;;;;;;6219682;28;20124;-78
2023/06/06 09:51:23;;;;;;;4.53;3.22;;;26.60;50.30;;;;;;6224130;28;20100;-78
2023/06/06 09:54:26;;;;;;;7.18;3.40;;;26.80;50.60;;;;;;6223191;28;20045;-78
2023/06/06 09:57:29;;;;;;;6.05;3.10;;;27.00;50.20;;;;;;6223741;28;20061;-80
2023/06/06 10:00:35;;;;;;;11.05;3.35;;;26.80;49.80;;;;;;6226611;28;20050;-79
2023/06/06 10:03:38;;;;;;;5.82;3.88;;;26.70;50.50;;;;;;6209805;28;20045;-79
2023/06/06 10:06:43;;;;;;;4.03;3.65;;;26.70;51.30;;;;;;6202894;28;20047;-78
2023/06/06 10:09:47;;;;;;;6.05;3.63;;;26.80;50.60;;;;;;6203278;28;20081;-81
2023/06/06 10:12:50;;;;;;;3.78;2.90;;;26.50;50.50;;;;;;6200832;28;20057;-81
2023/06/06 10:15:53;;;;;;;12.80;3.65;;;26.50;50.70;;;;;;6204650;28;20402;-78
2023/06/06 10:18:56;;;;;;;5.47;3.53;;;26.50;50.90;;;;;;6204430;28;20049;-82
2023/06/06 10:21:59;;;;;;;5.30;4.80;;;26.50;50.50;;;;;;6203011;28;20081;-81
2023/06/06 10:25:03;;;;;;;4.05;3.20;;;26.70;50.80;;;;;;6202331;28;20416;-79
2023/06/06 10:28:09;;;;;;;3.75;3.38;;;26.90;50.30;;;;;;6202221;28;20075;-79
2023/06/06 10:31:16;;;;;;;8.68;3.03;;;27.00;50.00;;;;;;6205599;28;20042;-80
2023/06/06 10:34:24;;;;;;;3.40;3.08;;;27.20;50.30;;;;;;6221062;28;20061;-83
2023/06/06 10:37:26;;;;;;;6.97;3.35;;;27.60;49.20;;;;;;6204444;28;21101;-79
2023/06/06 10:40:48;;;;;;;5.18;3.35;;;27.70;49.00;;;;;;6212183;28;20057;-78
2023/06/06 10:43:52;;;;;;;3.42;3.03;;;27.90;49.00;;;;;;6209692;28;20053;-78
2023/06/06 10:47:27;;;;;;;7.97;3.63;;;28.20;48.20;;;;;;6218557;28;20053;-78
2023/06/06 10:50:31;;;;;;;5.25;3.78;;;28.60;47.20;;;;;;6238356;28;20049;-78
2023/06/06 10:53:35;;;;;;;4.07;3.45;;;28.70;47.30;;;;;;6239208;28;20065;-78
2023/06/06 10:56:44;;;;;;;10.32;3.92;;;28.70;46.60;;;;;;6240159;28;20061;-80
2023/06/06 10:59:50;;;;;;;5.07;3.60;;;28.90;45.60;;;;;;6242299;28;20049;-76
2023/06/06 11:02:55;;;;;;;8.75;4.05;;;29.20;44.90;;;;;;6235798;28;20049;-77
2023/06/06 11:06:12;;;;;;;4.03;3.40;;;29.30;44.20;;;;;;6239174;28;20155;-78
2023/06/06 11:09:19;;;;;;;4.18;3.75;;;29.20;43.80;;;;;;6241251;28;20053;-78
2023/06/06 11:12:27;;;;;;;;;;;29.20;43.70;;;;;;6237664;28;20049;-76
2023/06/06 11:15:31;;;;;;;4.75;3.25;;;29.40;44.10;;;;;;6236567;28;19921;-75
2023/06/06 11:18:41;;;;;;;4.93;4.38;;;29.80;44.20;;;;;;6238039;28;20060;-76
2023/06/06 11:21:45;;;;;;;5.82;2.90;;;30.10;43.00;;;;;;6236115;28;20053;-76
2023/06/06 11:24:47;;;;;;;4.35;3.65;;;30.00;42.80;;;;;;6235015;28;20049;-78
2023/06/06 11:27:50;;;;;;;6.78;4.10;;;29.90;43.30;;;;;;6239854;28;20058;-78
2023/06/06 11:30:53;;;;;;;3.67;2.80;;;29.90;42.50;;;;;;6243450;28;20044;-76
2023/06/06 11:34:05;;;;;;;4.85;3.40;;;30.30;42.60;;;;;;6242928;28;20045;-78
2023/06/06 11:37:08;;;;;;;6.55;3.53;;;30.80;41.80;;;;;;6246705;28;20052;-77
2023/06/06 11:40:11;;;;;;;6.03;4.15;;;30.80;41.10;;;;;;6239452;28;20532;-78
2023/06/06 11:43:14;;;;;;;4.75;3.45;;;30.50;40.80;;;;;;6239176;28;20178;-76
2023/06/06 11:46:17;;;;;;;7.88;3.25;;;30.30;40.50;;;;;;6238120;28;20053;-78
2023/06/06 11:49:20;;;;;;;4.72;3.72;;;30.10;40.40;;;;;;6239286;28;20072;-77
2023/06/06 11:52:22;;;;;;;5.88;3.25;;;30.20;41.00;;;;;;6239090;28;20514;-77
2023/06/06 11:55:36;;;;;;;4.57;2.92;;;30.50;40.80;;;;;;6237110;28;20405;-76
2023/06/06 11:58:41;;;;;;;4.55;3.30;;;30.80;40.70;;;;;;6241092;28;20127;-77
2023/06/06 12:01:50;;;;;;;4.45;3.88;;;31.00;40.20;;;;;;6242050;28;20049;-77
2023/06/06 12:04:51;;;;;;;3.72;3.33;;;31.00;40.20;;;;;;6211377;28;20069;-77
2023/06/06 12:07:58;;;;;;;9.27;3.60;;;30.90;39.60;;;;;;6210714;28;21083;-76
2023/06/06 12:11:20;;;;;;;6.25;4.30;;;30.90;40.00;;;;;;6208368;28;20595;-77
2023/06/06 12:14:25;;;;;;;3.70;3.40;;;31.10;40.20;;;;;;6207078;28;20050;-77
2023/06/06 12:17:28;;;;;;;4.20;3.28;;;31.20;40.20;;;;;;6210543;28;20450;-75
2023/06/06 12:20:30;;;;;;;19.17;4.22;;;31.80;40.00;;;;;;6209756;28;20081;-76
2023/06/06 12:23:31;;;;;;;7.40;3.35;;;32.40;39.40;;;;;;6209568;28;20531;-76
2023/06/06 12:26:45;;;;;;;7.15;3.42;;;32.40;38.50;;;;;;6210113;28;20069;-76
2023/06/06 12:29:50;;;;;;;4.55;3.55;;;31.80;37.20;;;;;;6208586;28;20042;-76
2023/06/06 12:32:54;;;;;;;5.45;3.67;;;31.40;37.60;;;;;;6230384;28;20552;-75
2023/06/06 12:36:14;;;;;;;6.97;3.28;;;31.10;37.70;;;;;;6230189;28;20148;-77
2023/06/06 12:39:17;;;;;;;5.70;3.00;;;31.00;36.90;;;;;;6231825;28;20037;-75
2023/06/06 12:42:20;;;;;;;4.38;3.20;;;31.00;37.10;;;;;;6229318;28;20400;-75
2023/06/06 12:45:25;;;;;;;3.42;3.13;;;31.30;37.00;;;;;;6233875;28;20496;-76
2023/06/06 12:48:26;;;;;;;5.07;3.85;;;31.60;36.30;;;;;;6228645;28;20726;-76
2023/06/06 12:51:28;;;;;;;3.08;2.50;;;31.80;36.20;;;;;;6230938;28;20088;-77
2023/06/06 12:54:30;;;;;;;4.53;3.20;;;31.80;35.60;;;;;;6231887;28;20046;-77
2023/06/06 12:57:32;;;;;;;5.05;3.65;;;31.80;35.00;;;;;;6232857;28;20072;-77
2023/06/06 13:00:35;;;;;;;3.95;3.53;;;31.90;35.00;;;;;;6232026;28;20044;-75
2023/06/06 13:03:36;;;;;;;3.75;2.85;;;31.50;34.30;;;;;;6231640;28;20068;-76
2023/06/06 13:06:40;;;;;;;3.45;3.15;;;31.30;35.20;;;;;;6230803;28;20052;-76
2023/06/06 13:09:42;;;;;;;6.43;2.95;;;31.40;35.80;;;;;;6232370;28;20512;-76
2023/06/06 13:12:44;;;;;;;4.15;3.33;;;31.50;37.10;;;;;;6232916;28;20468;-75
2023/06/06 13:15:47;;;;;;;3.70;3.35;;;31.70;37.90;;;;;;6233193;28;20045;-76
2023/06/06 13:18:49;;;;;;;3.83;3.53;;;32.00;38.50;;;;;;6234187;28;20058;-76
2023/06/06 13:21:50;;;;;;;5.47;3.50;;;32.30;38.60;;;;;;6239129;28;20053;-77
2023/06/06 13:24:52;;;;;;;4.85;3.70;;;32.60;38.10;;;;;;6239018;28;20408;-77
2023/06/06 13:27:54;;;;;;;5.28;3.15;;;32.50;38.10;;;;;;6238040;28;20577;-77
2023/06/06 13:30:57;;;;;;;6.13;3.70;;;31.80;38.50;;;;;;6236579;28;20073;-76
2023/06/06 13:33:58;;;;;;;6.85;4.65;;;31.10;39.00;;;;;;6238424;28;20053;-78
2023/06/06 13:37:01;;;;;;;5.00;3.55;;;30.70;39.70;;;;;;6236024;28;20069;-77
2023/06/06 13:40:04;;;;;;;4.15;3.75;;;30.10;40.30;;;;;;6236327;28;20509;-78
2023/06/06 13:43:07;;;;;;;4.95;3.80;;;29.60;41.10;;;;;;6237637;28;20057;-79
2023/06/06 13:46:10;;;;;;;8.52;4.22;;;29.50;41.00;;;;;;6230066;28;20408;-78
2023/06/06 13:49:13;;;;;;;5.20;3.53;;;29.80;40.70;;;;;;6236123;28;20516;-77
2023/06/06 13:52:15;;;;;;;4.70;3.72;;;29.90;40.60;;;;;;6234831;28;20053;-77
2023/06/06 13:55:16;;;;;;;4.40;4.00;;;30.00;40.80;;;;;;6236104;28;20049;-81
2023/06/06 13:58:22;;;;;;;5.82;3.53;;;30.10;40.80;;;;;;6236330;28;20053;-78
2023/06/06 14:01:25;;;;;;;10.05;4.93;;;30.10;40.90;;;;;;6235656;28;20045;-79
2023/06/06 14:04:27;;;;;;;4.57;4.13;;;29.80;40.90;;;;;;6236720;28;20049;-77
2023/06/06 14:07:29;;;;;;;5.68;3.80;;;29.70;41.20;;;;;;6237307;28;20058;-78
2023/06/06 14:10:30;;;;;;;5.53;3.55;;;30.00;41.50;;;;;;6236406;28;20515;-77
2023/06/06 14:13:32;;;;;;;8.88;3.47;;;30.60;41.80;;;;;;6240456;28;20473;-78
2023/06/06 14:16:35;;;;;;;3.63;3.25;;;30.90;40.20;;;;;;6241066;28;20523;-80
2023/06/06 14:19:39;;;;;;;4.75;3.58;;;30.90;39.90;;;;;;6241334;28;20037;-78
2023/06/06 14:22:41;;;;;;;4.35;3.95;;;31.00;39.60;;;;;;6239034;28;20112;-79
2023/06/06 14:25:43;;;;;;;4.53;3.70;;;31.20;39.60;;;;;;6239143;28;20996;-78
2023/06/06 14:28:45;;;;;;;4.57;3.40;;;31.30;39.30;;;;;;6236936;28;20049;-78
2023/06/06 14:31:48;;;;;;;5.47;3.92;;;31.20;39.10;;;;;;6241661;28;20046;-81
2023/06/06 14:34:49;;;;;;;5.07;3.95;;;31.00;39.40;;;;;;6238542;28;20060;-80
2023/06/06 14:37:51;;;;;;;4.95;3.83;;;31.30;39.40;;;;;;6239399;28;20057;-80
2023/06/06 14:40:53;;;;;;;9.63;4.10;;;31.50;39.00;;;;;;6249465;28;20068;-81
2023/06/06 14:43:55;;;;;;;4.72;4.28;;;31.50;38.90;;;;;;6242711;28;20045;-81
2023/06/06 14:46:59;;;;;;;4.22;3.75;;;31.40;38.60;;;;;;6247857;28;20060;-80
2023/06/06 14:50:00;;;;;;;5.88;5.03;;;30.90;38.90;;;;;;6246995;28;20049;-80
2023/06/06 14:53:03;;;;;;;7.97;3.67;;;30.90;39.10;;;;;;6246051;28;20041;-80
2023/06/06 14:56:05;;;;;;;5.28;3.63;;;30.90;39.00;;;;;;6241646;28;20105;-80
2023/06/06 14:59:07;;;;;;;7.20;4.13;;;30.40;39.30;;;;;;6246704;28;20412;-81
2023/06/06 15:02:10;;;;;;;5.05;4.07;;;30.30;39.40;;;;;;6243081;28;20482;-80
2023/06/06 15:05:12;;;;;;;4.72;3.92;;;30.20;40.60;;;;;;6248717;28;20152;-79
2023/06/06 15:08:13;;;;;;;6.50;4.55;;;30.10;39.80;;;;;;6244129;28;20045;-79
2023/06/06 15:11:15;;;;;;;6.47;4.55;;;29.80;40.40;;;;;;6246364;28;20084;-80
2023/06/06 15:14:17;;;;;;;3.63;3.33;;;29.80;41.00;;;;;;6250667;28;20050;-79
2023/06/06 15:17:20;;;;;;;6.78;3.83;;;29.90;41.20;;;;;;6250698;28;20159;-80
2023/06/06 15:20:22;;;;;;;8.55;3.65;;;29.90;40.90;;;;;;6249375;28;20045;-78
2023/06/06 15:23:23;;;;;;;4.97;3.80;;;30.00;41.10;;;;;;6248397;28;20144;-80
2023/06/06 15:26:26;;;;;;;7.40;4.53;;;30.10;41.00;;;;;;6247390;28;20057;-80
2023/06/06 15:29:28;;;;;;;4.72;3.40;;;30.20;40.60;;;;;;6246127;28;20424;-79
2023/06/06 15:32:31;;;;;;;5.30;4.53;;;30.30;40.40;;;;;;6248386;28;20481;-79
2023/06/06 15:35:33;;;;;;;6.13;3.67;;;30.20;40.50;;;;;;6243731;28;20045;-79
2023/06/06 15:38:35;;;;;;;7.13;3.42;;;30.30;40.10;;;;;;6247594;28;20060;-82
2023/06/06 15:41:36;;;;;;;5.30;4.25;;;29.90;40.40;;;;;;6245692;28;20056;-82
2023/06/06 15:44:38;;;;;;;5.57;4.40;;;29.70;41.30;;;;;;6244300;28;20034;-81
2023/06/06 15:47:41;;;;;;;8.98;4.22;;;29.50;41.50;;;;;;6244871;28;20045;-78
2023/06/06 15:50:43;;;;;;;6.75;3.65;;;29.50;41.50;;;;;;6250144;28;23144;-79
2023/06/06 15:53:45;;;;;;;5.47;3.50;;;29.40;41.80;;;;;;6248455;28;20052;-80
2023/06/06 15:56:46;;;;;;;4.90;4.43;;;29.60;42.00;;;;;;6245623;28;20064;-80
2023/06/06 15:59:48;;;;;;;6.38;4.05;;;29.60;41.80;;;;;;6246128;28;20056;-80
2023/06/06 16:02:51;;;;;;;4.43;4.00;;;29.60;41.60;;;;;;6250494;28;20045;-80
2023/06/06 16:05:53;;;;;;;5.75;3.85;;;29.60;41.60;;;;;;6251408;28;20045;-80
2023/06/06 16:08:54;;;;;;;5.72;4.88;;;29.80;41.20;;;;;;6251343;28;20048;-78
2023/06/06 16:11:56;;;;;;;7.07;4.47;;;29.70;40.80;;;;;;6253234;28;20053;-78
2023/06/06 16:14:58;;;;;;;4.35;3.95;;;29.70;40.80;;;;;;6252645;28;20073;-78
2023/06/06 16:18:01;;;;;;;8.32;3.92;;;29.60;40.50;;;;;;6252995;28;20057;-79
2023/06/06 16:21:02;;;;;;;7.50;3.10;;;29.40;40.90;;;;;;6248156;28;20052;-79
2023/06/06 16:24:04;;;;;;;5.88;4.03;;;29.50;40.90;;;;;;6249386;28;20033;-79
2023/06/06 16:27:07;;;;;;;5.00;4.07;;;29.60;41.00;;;;;;6244924;28;20041;-80
2023/06/06 16:30:09;;;;;;;4.25;3.85;;;29.60;41.00;;;;;;6246821;28;20106;-80